createdAt,value
2023-05-01T00:00:03.479Z,52.5
2023-05-01T00:01:01.064Z,52.5
2023-05-01T00:02:01.066Z,52.7
2023-05-01T00:03:01.129Z,52.7
2023-05-01T00:04:01.705Z,52.7
2023-05-01T00:05:01.130Z,52.9
2023-05-01T00:06:03.354Z,52.9
2023-05-01T00:07:01.059Z,52.9
2023-05-01T00:08:01.366Z,52.9
2023-05-01T00:09:01.860Z,53.1
2023-05-01T00:10:01.519Z,53.1
2023-05-01T00:11:02.579Z,53.2
2023-05-01T00:12:01.933Z,53.2
2023-05-01T00:13:01.511Z,53.2
2023-05-01T00:14:01.092Z,53.4
2023-05-01T00:15:01.435Z,53.4
2023-05-01T00:16:01.102Z,53.4
2023-05-01T00:17:01.570Z,53.2
2023-05-01T00:18:01.123Z,53.4
2023-05-01T00:19:01.030Z,53.4
2023-05-01T00:20:00.997Z,53.4
2023-05-01T00:21:01.448Z,53.4
2023-05-01T00:22:01.320Z,53.4
2023-05-01T00:23:01.017Z,53.4
2023-05-01T00:24:01.417Z,53.4
2023-05-01T00:25:01.328Z,53.4
2023-05-01T00:26:01.390Z,53.4
2023-05-01T00:27:01.241Z,53.4
2023-05-01T00:28:01.338Z,53.6
2023-05-01T00:29:01.403Z,53.6
2023-05-01T00:30:01.218Z,53.6
2023-05-01T00:31:01.338Z,53.6
2023-05-01T00:32:01.137Z,53.6
2023-05-01T00:33:01.149Z,53.6
2023-05-01T00:34:01.528Z,53.6
2023-05-01T00:35:01.345Z,53.6
2023-05-01T00:36:01.026Z,53.8
2023-05-01T00:37:01.068Z,53.8
2023-05-01T00:38:01.450Z,53.8
2023-05-01T00:39:01.397Z,53.8
2023-05-01T00:40:01.320Z,53.8
2023-05-01T00:41:01.433Z,53.8
2023-05-01T00:42:01.033Z,53.8
2023-05-01T00:43:01.362Z,53.8
2023-05-01T00:44:01.731Z,53.8
2023-05-01T00:45:01.098Z,53.8
2023-05-01T00:46:01.194Z,53.8
2023-05-01T00:47:01.127Z,53.8
2023-05-01T00:48:01.071Z,54.0
2023-05-01T00:49:01.397Z,54.0
2023-05-01T00:50:02.190Z,53.8
2023-05-01T00:51:04.765Z,53.8
2023-05-01T00:52:01.685Z,53.8
2023-05-01T00:53:01.806Z,53.8
2023-05-01T00:54:02.391Z,54.0
2023-05-01T00:55:01.099Z,54.0
2023-05-01T00:56:01.636Z,54.1
2023-05-01T00:57:02.218Z,54.0
2023-05-01T00:58:01.067Z,54.0
2023-05-01T00:59:01.065Z,54.0
2023-05-01T01:00:01.087Z,54.0
2023-05-01T01:01:01.957Z,54.1
2023-05-01T01:02:01.040Z,54.1
2023-05-01T01:03:01.541Z,54.1
2023-05-01T01:04:01.105Z,54.1
2023-05-01T01:05:01.053Z,54.1
2023-05-01T01:06:08.379Z,54.1
2023-05-01T01:07:08.829Z,54.3
2023-05-01T01:08:10.181Z,54.3
2023-05-01T01:09:17.122Z,54.3
2023-05-01T01:10:09.549Z,54.3
2023-05-01T01:11:07.215Z,54.3
2023-05-01T01:12:09.466Z,54.5
2023-05-01T01:13:07.626Z,54.5
2023-05-01T01:14:10.789Z,54.5
2023-05-01T01:15:13.033Z,54.7
2023-05-01T01:16:11.691Z,54.7
2023-05-01T01:17:10.904Z,54.7
2023-05-01T01:18:11.628Z,54.9
2023-05-01T01:19:14.126Z,54.9
2023-05-01T01:20:17.893Z,54.9
2023-05-01T01:21:07.759Z,54.9
2023-05-01T01:22:09.394Z,54.9
2023-05-01T01:23:13.945Z,54.9
2023-05-01T01:24:20.488Z,55.0
2023-05-01T01:25:20.466Z,55.0
2023-05-01T01:26:12.241Z,55.0
2023-05-01T01:27:18.323Z,55.0
2023-05-01T01:28:16.269Z,55.0
2023-05-01T01:29:20.659Z,55.0
2023-05-01T01:30:20.493Z,55.2
2023-05-01T01:31:10.741Z,55.2
2023-05-01T01:32:17.502Z,55.2
2023-05-01T01:33:20.466Z,55.2
2023-05-01T01:34:03.605Z,55.4
2023-05-01T01:35:05.525Z,55.4
2023-05-01T01:36:07.303Z,55.4
2023-05-01T01:37:13.999Z,55.4
2023-05-01T01:38:08.831Z,55.4
2023-05-01T01:39:08.351Z,55.4
2023-05-01T01:40:06.454Z,55.4
2023-05-01T01:41:09.254Z,55.4
2023-05-01T01:42:06.399Z,55.4
2023-05-01T01:43:05.443Z,55.4
2023-05-01T01:44:08.365Z,55.6
2023-05-01T01:45:06.268Z,55.6
2023-05-01T01:46:05.783Z,55.6
2023-05-01T01:47:04.331Z,55.6
2023-05-01T01:48:02.529Z,55.6
2023-05-01T01:49:05.636Z,55.8
2023-05-01T01:50:05.835Z,55.8
2023-05-01T01:51:05.094Z,55.8
2023-05-01T01:52:02.826Z,55.8
2023-05-01T01:53:03.670Z,55.8
2023-05-01T01:54:03.245Z,55.8
2023-05-01T01:55:06.467Z,55.9
2023-05-01T01:56:03.929Z,55.9
2023-05-01T01:57:02.988Z,56.1
2023-05-01T01:58:03.528Z,56.1
2023-05-01T01:59:04.190Z,56.1
2023-05-01T02:00:01.067Z,56.1
2023-05-01T02:01:01.153Z,56.1
2023-05-01T02:02:03.015Z,56.3
2023-05-01T02:03:02.597Z,56.3
2023-05-01T02:04:03.182Z,56.3
2023-05-01T02:05:02.636Z,56.3
2023-05-01T02:06:03.720Z,56.5
2023-05-01T02:07:03.373Z,56.5
2023-05-01T02:08:03.311Z,56.5
2023-05-01T02:09:02.802Z,56.5
2023-05-01T02:10:03.430Z,56.5
2023-05-01T02:11:02.788Z,56.5
2023-05-01T02:12:03.093Z,56.5
2023-05-01T02:13:03.394Z,56.5
2023-05-01T02:14:01.989Z,56.7
2023-05-01T02:15:01.863Z,56.7
2023-05-01T02:16:02.631Z,56.7
2023-05-01T02:17:03.363Z,56.7
2023-05-01T02:18:02.701Z,56.7
2023-05-01T02:19:03.192Z,56.8
2023-05-01T02:20:02.628Z,56.7
2023-05-01T02:21:03.752Z,56.8
2023-05-01T02:22:04.604Z,56.8
2023-05-01T02:23:02.484Z,56.8
2023-05-01T02:24:01.348Z,56.8
2023-05-01T02:25:02.475Z,56.8
2023-05-01T02:26:03.437Z,56.8
2023-05-01T02:27:06.285Z,56.8
2023-05-01T02:28:07.799Z,56.8
2023-05-01T02:29:01.731Z,57.0
2023-05-01T02:30:01.568Z,57.0
2023-05-01T02:31:01.053Z,57.0
2023-05-01T02:32:01.204Z,57.0
2023-05-01T02:33:01.242Z,57.2
2023-05-01T02:34:01.455Z,57.2
2023-05-01T02:35:01.142Z,57.2
2023-05-01T02:36:01.049Z,57.4
2023-05-01T02:37:01.276Z,57.4
2023-05-01T02:38:01.085Z,57.4
2023-05-01T02:39:01.659Z,57.4
2023-05-01T02:40:03.015Z,57.4
2023-05-01T02:41:02.194Z,57.4
2023-05-01T02:42:03.088Z,57.6
2023-05-01T02:43:05.975Z,57.6
2023-05-01T02:44:03.273Z,57.6
2023-05-01T02:45:04.515Z,57.6
2023-05-01T02:46:03.174Z,57.6
2023-05-01T02:47:02.548Z,57.7
2023-05-01T02:48:04.509Z,57.7
2023-05-01T02:49:02.628Z,57.7
2023-05-01T02:50:02.224Z,57.9
2023-05-01T02:51:02.699Z,57.9
2023-05-01T02:52:02.297Z,57.9
2023-05-01T02:53:01.447Z,57.9
2023-05-01T02:54:01.734Z,57.9
2023-05-01T02:55:01.903Z,57.9
2023-05-01T02:56:03.366Z,58.1
2023-05-01T02:57:03.452Z,58.1
2023-05-01T02:58:01.383Z,58.1
2023-05-01T02:59:01.411Z,58.3
2023-05-01T03:00:01.398Z,58.1
2023-05-01T03:01:01.460Z,58.3
2023-05-01T03:02:01.799Z,58.3
2023-05-01T03:03:01.410Z,58.3
2023-05-01T03:04:01.164Z,58.3
2023-05-01T03:05:01.106Z,58.3
2023-05-01T03:06:01.424Z,58.3
2023-05-01T03:07:01.109Z,58.3
2023-05-01T03:08:01.499Z,58.3
2023-05-01T03:09:01.047Z,58.3
2023-05-01T03:10:01.478Z,58.5
2023-05-01T03:11:04.624Z,58.5
2023-05-01T03:12:01.155Z,58.5
2023-05-01T03:13:01.275Z,58.5
2023-05-01T03:14:01.386Z,58.5
2023-05-01T03:15:01.369Z,58.6
2023-05-01T03:16:01.406Z,58.6
2023-05-01T03:17:01.413Z,58.6
2023-05-01T03:18:01.539Z,58.6
2023-05-01T03:19:01.383Z,58.6
2023-05-01T03:20:01.076Z,58.6
2023-05-01T03:21:01.061Z,58.8
2023-05-01T03:22:01.082Z,58.8
2023-05-01T03:23:01.411Z,58.8
2023-05-01T03:24:01.308Z,58.6
2023-05-01T03:25:01.585Z,58.8
2023-05-01T03:26:01.364Z,58.8
2023-05-01T03:27:01.317Z,58.8
2023-05-01T03:28:01.445Z,58.8
2023-05-01T03:29:01.092Z,58.8
2023-05-01T03:30:01.381Z,58.8
2023-05-01T03:31:01.370Z,58.8
2023-05-01T03:32:01.063Z,58.8
2023-05-01T03:33:01.468Z,58.8
2023-05-01T03:34:01.340Z,59.0
2023-05-01T03:35:01.266Z,59.0
2023-05-01T03:36:02.087Z,59.0
2023-05-01T03:37:01.062Z,59.0
2023-05-01T03:38:01.389Z,58.8
2023-05-01T03:39:01.067Z,59.0
2023-05-01T03:40:01.149Z,58.8
2023-05-01T03:41:01.069Z,58.8
2023-05-01T03:42:01.094Z,58.8
2023-05-01T03:43:01.109Z,58.8
2023-05-01T03:44:01.095Z,58.8
2023-05-01T03:45:01.001Z,58.8
2023-05-01T03:46:01.300Z,58.8
2023-05-01T03:47:01.032Z,58.8
2023-05-01T03:48:01.408Z,58.8
2023-05-01T03:49:01.319Z,58.8
2023-05-01T03:50:01.106Z,58.8
2023-05-01T03:51:01.059Z,58.8
2023-05-01T03:52:01.432Z,58.8
2023-05-01T03:53:01.079Z,58.8
2023-05-01T03:54:01.308Z,58.8
2023-05-01T03:55:01.087Z,58.8
2023-05-01T03:56:01.352Z,58.8
2023-05-01T03:57:01.245Z,58.8
2023-05-01T03:58:01.088Z,58.8
2023-05-01T03:59:01.506Z,58.6
2023-05-01T04:00:01.370Z,58.6
2023-05-01T04:01:01.130Z,58.6
2023-05-01T04:02:01.123Z,58.6
2023-05-01T04:03:01.287Z,58.6
2023-05-01T04:04:01.609Z,58.6
2023-05-01T04:05:01.395Z,58.6
2023-05-01T04:06:01.726Z,58.6
2023-05-01T04:07:01.082Z,58.5
2023-05-01T04:08:01.204Z,58.5
2023-05-01T04:09:01.086Z,58.6
2023-05-01T04:10:01.413Z,58.6
2023-05-01T04:11:01.069Z,58.6
2023-05-01T04:12:01.052Z,58.6
2023-05-01T04:13:01.025Z,58.6
2023-05-01T04:14:01.355Z,58.6
2023-05-01T04:15:01.337Z,58.6
2023-05-01T04:16:01.409Z,58.6
2023-05-01T04:17:01.613Z,58.6
2023-05-01T04:18:01.164Z,58.6
2023-05-01T04:19:01.304Z,58.6
2023-05-01T04:20:01.466Z,58.5
2023-05-01T04:21:01.389Z,58.6
2023-05-01T04:22:01.372Z,58.5
2023-05-01T04:23:01.373Z,58.5
2023-05-01T04:24:01.342Z,58.6
2023-05-01T04:25:01.405Z,58.6
2023-05-01T04:26:01.049Z,58.6
2023-05-01T04:27:01.527Z,58.8
2023-05-01T04:28:01.400Z,58.8
2023-05-01T04:29:01.408Z,58.8
2023-05-01T04:30:01.274Z,58.8
2023-05-01T04:31:01.147Z,58.8
2023-05-01T04:32:01.187Z,58.8
2023-05-01T04:33:01.051Z,58.8
2023-05-01T04:34:01.393Z,59.0
2023-05-01T04:35:01.621Z,59.0
2023-05-01T04:36:01.075Z,59.0
2023-05-01T04:37:01.054Z,59.0
2023-05-01T04:38:01.061Z,59.0
2023-05-01T04:39:01.385Z,59.0
2023-05-01T04:40:01.416Z,59.0
2023-05-01T04:41:01.300Z,59.2
2023-05-01T04:42:01.505Z,59.0
2023-05-01T04:43:01.130Z,59.2
2023-05-01T04:44:01.417Z,59.2
2023-05-01T04:45:01.091Z,59.2
2023-05-01T04:46:03.080Z,59.2
2023-05-01T04:47:01.692Z,59.2
2023-05-01T04:48:01.360Z,59.4
2023-05-01T04:49:01.038Z,59.4
2023-05-01T04:50:01.112Z,59.4
2023-05-01T04:51:01.042Z,59.4
2023-05-01T04:52:01.680Z,59.5
2023-05-01T04:53:01.050Z,59.5
2023-05-01T04:54:01.077Z,59.5
2023-05-01T04:55:01.190Z,59.7
2023-05-01T04:56:01.112Z,59.7
2023-05-01T04:57:01.314Z,59.7
2023-05-01T04:58:01.513Z,59.7
2023-05-01T04:59:01.037Z,59.7
2023-05-01T05:00:01.527Z,59.7
2023-05-01T05:01:01.194Z,59.7
2023-05-01T05:02:01.202Z,59.7
2023-05-01T05:03:01.351Z,59.7
2023-05-01T05:04:01.289Z,59.9
2023-05-01T05:05:01.107Z,59.7
2023-05-01T05:06:01.432Z,59.7
2023-05-01T05:07:01.109Z,59.7
2023-05-01T05:08:01.420Z,59.9
2023-05-01T05:09:01.116Z,59.9
2023-05-01T05:10:01.096Z,59.9
2023-05-01T05:11:01.070Z,59.9
2023-05-01T05:12:01.075Z,59.9
2023-05-01T05:13:01.338Z,59.9
2023-05-01T05:14:01.528Z,60.1
2023-05-01T05:15:01.447Z,60.1
2023-05-01T05:16:01.087Z,60.1
2023-05-01T05:17:01.371Z,60.3
2023-05-01T05:18:01.435Z,60.3
2023-05-01T05:19:01.401Z,60.3
2023-05-01T05:20:01.004Z,60.3
2023-05-01T05:21:03.258Z,60.3
2023-05-01T05:22:01.742Z,60.3
2023-05-01T05:23:01.063Z,60.3
2023-05-01T05:24:01.087Z,60.3
2023-05-01T05:25:01.132Z,60.4
2023-05-01T05:26:02.102Z,60.4
2023-05-01T05:27:01.078Z,60.4
2023-05-01T05:28:01.377Z,60.4
2023-05-01T05:29:01.147Z,60.4
2023-05-01T05:30:01.755Z,60.4
2023-05-01T05:31:01.441Z,60.6
2023-05-01T05:32:01.235Z,60.8
2023-05-01T05:33:01.133Z,60.8
2023-05-01T05:34:01.012Z,61.0
2023-05-01T05:35:01.362Z,61.2
2023-05-01T05:36:01.279Z,61.3
2023-05-01T05:37:01.076Z,61.3
2023-05-01T05:38:01.439Z,61.5
2023-05-01T05:39:01.084Z,61.5
2023-05-01T05:40:01.352Z,61.7
2023-05-01T05:41:01.129Z,61.7
2023-05-01T05:42:01.092Z,61.9
2023-05-01T05:43:01.423Z,62.1
2023-05-01T05:44:01.064Z,62.1
2023-05-01T05:45:01.410Z,62.1
2023-05-01T05:46:01.208Z,62.1
2023-05-01T05:47:01.682Z,62.2
2023-05-01T05:48:01.580Z,62.2
2023-05-01T05:49:01.039Z,62.2
2023-05-01T05:50:01.430Z,62.2
2023-05-01T05:51:01.585Z,62.4
2023-05-01T05:52:01.365Z,62.4
2023-05-01T05:53:01.427Z,62.4
2023-05-01T05:54:01.031Z,62.4
2023-05-01T05:55:01.049Z,62.4
2023-05-01T05:56:01.367Z,62.6
2023-05-01T05:57:01.008Z,62.6
2023-05-01T05:58:01.654Z,62.6
2023-05-01T05:59:01.083Z,62.6
2023-05-01T06:00:01.424Z,62.6
2023-05-01T06:01:01.444Z,62.6
2023-05-01T06:02:01.079Z,62.6
2023-05-01T06:03:01.497Z,62.6
2023-05-01T06:04:01.063Z,62.6
2023-05-01T06:05:01.468Z,62.6
2023-05-01T06:06:01.583Z,62.6
2023-05-01T06:07:01.562Z,62.6
2023-05-01T06:08:01.048Z,62.6
2023-05-01T06:09:01.278Z,62.8
2023-05-01T06:10:01.379Z,62.8
2023-05-01T06:11:01.396Z,62.6
2023-05-01T06:12:01.454Z,62.6
2023-05-01T06:13:10.231Z,62.6
2023-05-01T06:14:01.379Z,62.6
2023-05-01T06:15:01.053Z,62.6
2023-05-01T06:16:01.507Z,62.6
2023-05-01T06:17:01.397Z,62.6
2023-05-01T06:18:01.526Z,62.8
2023-05-01T06:19:01.197Z,62.6
2023-05-01T06:20:01.311Z,62.6
2023-05-01T06:21:01.078Z,62.8
2023-05-01T06:22:01.425Z,62.8
2023-05-01T06:23:01.060Z,62.8
2023-05-01T06:24:01.454Z,62.8
2023-05-01T06:25:01.027Z,62.8
2023-05-01T06:26:01.092Z,62.8
2023-05-01T06:27:01.616Z,62.6
2023-05-01T06:28:01.114Z,62.6
2023-05-01T06:29:01.092Z,62.6
2023-05-01T06:30:01.058Z,62.6
2023-05-01T06:31:01.662Z,62.6
2023-05-01T06:32:01.127Z,62.6
2023-05-01T06:33:01.109Z,62.6
2023-05-01T06:34:01.071Z,62.6
2023-05-01T06:35:01.026Z,62.6
2023-05-01T06:36:01.535Z,62.6
2023-05-01T06:37:01.041Z,62.4
2023-05-01T06:38:01.026Z,62.6
2023-05-01T06:39:01.443Z,62.6
2023-05-01T06:40:01.130Z,62.6
2023-05-01T06:41:01.446Z,62.6
2023-05-01T06:42:01.209Z,62.6
2023-05-01T06:43:01.386Z,62.6
2023-05-01T06:44:01.115Z,62.6
2023-05-01T06:45:01.096Z,62.6
2023-05-01T06:46:01.028Z,62.6
2023-05-01T06:47:01.076Z,62.6
2023-05-01T06:48:01.105Z,62.6
2023-05-01T06:49:01.357Z,62.6
2023-05-01T06:50:02.841Z,62.6
2023-05-01T06:51:01.085Z,62.4
2023-05-01T06:52:01.423Z,62.6
2023-05-01T06:53:01.320Z,62.4
2023-05-01T06:54:01.355Z,62.4
2023-05-01T06:55:01.446Z,62.4
2023-05-01T06:56:01.043Z,62.4
2023-05-01T06:57:01.082Z,62.6
2023-05-01T06:58:02.901Z,62.4
2023-05-01T06:59:01.072Z,62.4
2023-05-01T07:00:01.010Z,62.4
2023-05-01T07:01:01.199Z,62.4
2023-05-01T07:02:01.378Z,62.4
2023-05-01T07:03:01.481Z,62.4
2023-05-01T07:04:01.318Z,62.4
2023-05-01T07:05:01.432Z,62.4
2023-05-01T07:06:01.472Z,62.6
2023-05-01T07:07:01.070Z,62.4
2023-05-01T07:08:01.791Z,62.6
2023-05-01T07:09:01.088Z,62.6
2023-05-01T07:10:01.123Z,62.6
2023-05-01T07:11:01.535Z,62.6
2023-05-01T07:12:01.455Z,62.6
2023-05-01T07:13:01.337Z,62.4
2023-05-01T07:14:01.511Z,62.4
2023-05-01T07:15:01.266Z,62.4
2023-05-01T07:16:01.497Z,62.4
2023-05-01T07:17:01.541Z,62.4
2023-05-01T07:18:01.133Z,62.4
2023-05-01T07:19:01.407Z,62.4
2023-05-01T07:20:01.003Z,62.4
2023-05-01T07:21:01.020Z,62.4
2023-05-01T07:22:01.414Z,62.4
2023-05-01T07:23:01.456Z,62.2
2023-05-01T07:24:01.036Z,62.2
2023-05-01T07:25:01.096Z,62.2
2023-05-01T07:26:01.312Z,62.4
2023-05-01T07:27:01.082Z,62.2
2023-05-01T07:28:01.378Z,62.2
2023-05-01T07:29:01.382Z,62.2
2023-05-01T07:30:02.724Z,62.2
2023-05-01T07:31:01.095Z,62.2
2023-05-01T07:32:01.115Z,62.2
2023-05-01T07:33:01.226Z,62.2
2023-05-01T07:34:01.034Z,62.2
2023-05-01T07:35:01.013Z,62.2
2023-05-01T07:36:01.454Z,62.2
2023-05-01T07:37:01.647Z,62.2
2023-05-01T07:38:01.064Z,62.2
2023-05-01T07:39:01.363Z,62.2
2023-05-01T07:40:01.057Z,62.1
2023-05-01T07:41:01.384Z,62.2
2023-05-01T07:42:01.063Z,62.1
2023-05-01T07:43:01.322Z,62.1
2023-05-01T07:44:01.461Z,62.1
2023-05-01T07:45:01.134Z,62.1
2023-05-01T07:46:01.136Z,62.1
2023-05-01T07:47:02.999Z,62.1
2023-05-01T07:48:01.292Z,62.1
2023-05-01T07:49:01.433Z,62.1
2023-05-01T07:50:01.325Z,62.1
2023-05-01T07:51:02.291Z,61.9
2023-05-01T07:52:01.067Z,62.1
2023-05-01T07:53:01.064Z,61.9
2023-05-01T07:54:01.430Z,61.9
2023-05-01T07:55:01.059Z,61.9
2023-05-01T07:56:05.463Z,61.7
2023-05-01T07:57:01.276Z,61.7
2023-05-01T07:58:01.020Z,61.7
2023-05-01T07:59:01.373Z,61.7
2023-05-01T08:00:01.588Z,61.7
2023-05-01T08:01:01.414Z,61.7
2023-05-01T08:02:01.108Z,61.7
2023-05-01T08:03:01.909Z,61.7
2023-05-01T08:04:01.065Z,61.7
2023-05-01T08:05:01.452Z,61.5
2023-05-01T08:06:01.054Z,61.5
2023-05-01T08:07:01.167Z,61.5
2023-05-01T08:08:01.034Z,61.5
2023-05-01T08:09:01.033Z,61.3
2023-05-01T08:10:02.078Z,61.3
2023-05-01T08:11:01.376Z,61.3
2023-05-01T08:12:01.378Z,61.5
2023-05-01T08:13:01.047Z,61.3
2023-05-01T08:14:01.424Z,61.3
2023-05-01T08:15:01.452Z,61.3
2023-05-01T08:16:01.777Z,61.2
2023-05-01T08:17:01.001Z,61.3
2023-05-01T08:18:01.087Z,61.3
2023-05-01T08:19:01.476Z,61.3
2023-05-01T08:20:01.599Z,61.3
2023-05-01T08:21:01.233Z,61.2
2023-05-01T08:22:01.349Z,61.2
2023-05-01T08:23:01.425Z,61.2
2023-05-01T08:24:01.403Z,61.2
2023-05-01T08:25:01.097Z,61.2
2023-05-01T08:26:01.442Z,61.2
2023-05-01T08:27:01.047Z,61.2
2023-05-01T08:28:01.405Z,61.2
2023-05-01T08:29:01.362Z,61.2
2023-05-01T08:30:01.457Z,61.2
2023-05-01T08:31:01.083Z,61.2
2023-05-01T08:32:01.493Z,61.2
2023-05-01T08:33:01.172Z,61.2
2023-05-01T08:34:01.014Z,61.2
2023-05-01T08:35:01.420Z,61.2
2023-05-01T08:36:01.098Z,61.2
2023-05-01T08:37:01.638Z,61.2
2023-05-01T08:38:01.535Z,61.0
2023-05-01T08:39:01.414Z,61.0
2023-05-01T08:40:01.071Z,61.0
2023-05-01T08:41:01.446Z,61.0
2023-05-01T08:42:02.360Z,61.0
2023-05-01T08:43:01.781Z,61.0
2023-05-01T08:44:02.485Z,61.0
2023-05-01T08:45:02.536Z,60.8
2023-05-01T08:46:03.030Z,61.0
2023-05-01T08:47:09.951Z,61.0
2023-05-01T08:48:04.913Z,61.0
2023-05-01T08:49:05.245Z,60.8
2023-05-01T08:50:03.153Z,60.8
2023-05-01T08:51:02.694Z,60.6
2023-05-01T08:52:02.240Z,60.6
2023-05-01T08:53:02.529Z,60.6
2023-05-01T08:54:04.830Z,60.6
2023-05-01T08:55:02.420Z,60.4
2023-05-01T08:56:05.854Z,60.4
2023-05-01T08:57:02.773Z,60.4
2023-05-01T08:58:02.906Z,60.4
2023-05-01T08:59:03.401Z,60.4
2023-05-01T09:00:02.694Z,60.3
2023-05-01T09:01:01.846Z,60.3
2023-05-01T09:02:02.632Z,60.1
2023-05-01T09:03:03.413Z,60.1
2023-05-01T09:04:02.773Z,60.3
2023-05-01T09:05:02.888Z,60.1
2023-05-01T09:06:02.724Z,60.1
2023-05-01T09:07:01.572Z,60.1
2023-05-01T09:08:01.032Z,60.1
2023-05-01T09:09:01.650Z,60.1
2023-05-01T09:10:01.413Z,60.1
2023-05-01T09:11:03.433Z,60.1
2023-05-01T09:12:11.727Z,60.1
2023-05-01T09:13:02.985Z,60.1
2023-05-01T09:14:02.442Z,60.1
2023-05-01T09:15:02.870Z,60.1
2023-05-01T09:16:03.660Z,60.1
2023-05-01T09:17:01.076Z,60.1
2023-05-01T09:18:03.591Z,59.9
2023-05-01T09:19:01.555Z,59.9
2023-05-01T09:20:02.519Z,59.9
2023-05-01T09:21:01.623Z,59.9
2023-05-01T09:22:01.149Z,59.9
2023-05-01T09:23:01.086Z,59.9
2023-05-01T09:24:01.054Z,59.9
2023-05-01T09:25:01.565Z,59.9
2023-05-01T09:26:04.089Z,59.7
2023-05-01T09:27:01.279Z,59.7
2023-05-01T09:28:03.940Z,59.5
2023-05-01T09:29:01.084Z,59.5
2023-05-01T09:30:01.150Z,59.5
2023-05-01T09:31:20.494Z,59.5
2023-05-01T09:32:12.700Z,59.5
2023-05-01T09:33:09.871Z,59.5
2023-05-01T09:34:02.479Z,59.5
2023-05-01T09:35:11.906Z,59.5
2023-05-01T09:36:01.124Z,59.5
2023-05-01T09:37:01.580Z,59.4
2023-05-01T09:38:01.320Z,59.2
2023-05-01T09:39:01.984Z,59.0
2023-05-01T09:40:04.166Z,58.8
2023-05-01T09:41:04.092Z,58.8
2023-05-01T09:42:01.066Z,58.8
2023-05-01T09:43:01.352Z,58.8
2023-05-01T09:44:01.144Z,58.6
2023-05-01T09:45:04.172Z,58.8
2023-05-01T09:46:03.311Z,58.8
2023-05-01T09:47:01.566Z,58.8
2023-05-01T09:48:07.696Z,58.8
2023-05-01T09:49:01.890Z,58.8
2023-05-01T09:50:01.092Z,58.8
2023-05-01T09:51:11.043Z,58.8
2023-05-01T09:52:10.791Z,58.8
2023-05-01T09:53:02.154Z,58.8
2023-05-01T09:54:03.705Z,58.8
2023-05-01T09:55:11.661Z,58.6
2023-05-01T09:56:01.809Z,58.8
2023-05-01T09:57:01.011Z,58.8
2023-05-01T09:58:01.528Z,58.8
2023-05-01T09:59:15.130Z,58.8
2023-05-01T10:00:01.733Z,58.8
2023-05-01T10:01:01.152Z,58.8
2023-05-01T10:02:01.151Z,58.6
2023-05-01T10:03:12.504Z,58.6
2023-05-01T10:04:01.236Z,58.6
2023-05-01T10:05:01.866Z,58.5
2023-05-01T10:06:01.635Z,58.5
2023-05-01T10:07:11.252Z,58.5
2023-05-01T10:08:02.010Z,58.5
2023-05-01T10:09:02.673Z,58.5
2023-05-01T10:10:18.944Z,58.5
2023-05-01T10:11:02.860Z,58.5
2023-05-01T10:12:01.074Z,58.5
2023-05-01T10:13:12.967Z,58.5
2023-05-01T10:14:09.786Z,58.3
2023-05-01T10:15:07.835Z,58.3
2023-05-01T10:16:01.318Z,58.3
2023-05-01T10:17:16.046Z,58.3
2023-05-01T10:18:01.829Z,58.5
2023-05-01T10:19:03.675Z,58.3
2023-05-01T10:20:01.417Z,58.5
2023-05-01T10:21:03.477Z,58.3
2023-05-01T10:22:01.352Z,58.3
2023-05-01T10:23:02.156Z,58.3
2023-05-01T10:24:01.906Z,58.1
2023-05-01T10:25:01.836Z,58.1
2023-05-01T10:26:04.547Z,58.1
2023-05-01T10:27:02.006Z,58.1
2023-05-01T10:28:03.343Z,58.3
2023-05-01T10:29:02.588Z,58.3
2023-05-01T10:30:02.912Z,58.1
2023-05-01T10:31:02.436Z,58.1
2023-05-01T10:32:03.222Z,58.1
2023-05-01T10:33:02.293Z,58.1
2023-05-01T10:34:01.905Z,58.3
2023-05-01T10:35:06.288Z,58.1
2023-05-01T10:36:03.028Z,58.1
2023-05-01T10:37:08.746Z,58.1
2023-05-01T10:38:03.739Z,58.1
2023-05-01T10:39:01.948Z,58.3
2023-05-01T10:40:20.467Z,58.3
2023-05-01T10:41:01.331Z,58.1
2023-05-01T10:42:02.986Z,58.3
2023-05-01T10:43:14.934Z,58.3
2023-05-01T10:44:20.493Z,58.3
2023-05-01T10:45:20.471Z,58.3
2023-05-01T10:46:20.487Z,58.3
2023-05-01T10:47:20.535Z,58.3
2023-05-01T10:48:01.353Z,58.1
2023-05-01T10:49:01.084Z,58.1
2023-05-01T10:50:03.914Z,58.3
2023-05-01T10:51:12.483Z,58.3
2023-05-01T10:52:01.093Z,58.3
2023-05-01T10:53:18.312Z,58.1
2023-05-01T10:54:20.488Z,58.1
2023-05-01T10:55:20.476Z,58.1
2023-05-01T10:56:01.035Z,58.3
2023-05-01T10:57:02.496Z,58.3
2023-05-01T10:58:01.433Z,58.3
2023-05-01T10:59:02.062Z,58.3
2023-05-01T11:00:10.754Z,58.3
2023-05-01T11:01:20.507Z,58.3
2023-05-01T11:02:20.545Z,58.3
2023-05-01T11:03:20.467Z,58.3
2023-05-01T11:04:03.601Z,58.3
2023-05-01T11:05:01.265Z,58.1
2023-05-01T11:06:05.338Z,58.1
2023-05-01T11:07:14.514Z,58.3
2023-05-01T11:08:20.488Z,58.1
2023-05-01T11:09:11.214Z,58.3
2023-05-01T11:10:01.369Z,58.3
2023-05-01T11:11:20.471Z,58.3
2023-05-01T11:12:01.078Z,58.1
2023-05-01T11:13:01.097Z,57.9
2023-05-01T11:14:02.256Z,57.9
2023-05-01T11:15:03.800Z,57.9
2023-05-01T11:16:20.513Z,57.9
2023-05-01T11:17:01.267Z,57.9
2023-05-01T11:18:02.276Z,57.9
2023-05-01T11:19:01.382Z,57.9
2023-05-01T11:20:01.078Z,57.9
2023-05-01T11:21:01.317Z,57.9
2023-05-01T11:22:01.731Z,57.9
2023-05-01T11:23:01.384Z,57.9
2023-05-01T11:24:02.034Z,57.9
2023-05-01T11:25:02.062Z,57.9
2023-05-01T11:26:02.775Z,57.7
2023-05-01T11:27:02.243Z,57.7
2023-05-01T11:28:03.291Z,57.7
2023-05-01T11:29:01.393Z,57.7
2023-05-01T11:30:01.055Z,57.7
2023-05-01T11:31:01.166Z,57.7
2023-05-01T11:32:01.141Z,57.7
2023-05-01T11:33:01.653Z,57.7
2023-05-01T11:34:02.385Z,57.9
2023-05-01T11:35:01.412Z,57.7
2023-05-01T11:36:01.846Z,57.9
2023-05-01T11:37:01.316Z,57.9
2023-05-01T11:38:01.411Z,57.9
2023-05-01T11:39:01.321Z,57.9
2023-05-01T11:40:01.382Z,57.9
2023-05-01T11:41:02.503Z,58.1
2023-05-01T11:42:09.203Z,57.9
2023-05-01T11:43:03.018Z,58.1
2023-05-01T11:44:01.064Z,58.1
2023-05-01T11:45:09.132Z,58.1
2023-05-01T11:46:01.092Z,58.3
2023-05-01T11:47:01.094Z,58.3
2023-05-01T11:48:03.619Z,58.3
2023-05-01T11:49:01.803Z,58.5
2023-05-01T11:50:01.192Z,58.5
2023-05-01T11:51:12.305Z,58.5
2023-05-01T11:52:01.026Z,58.3
2023-05-01T11:53:02.500Z,58.3
2023-05-01T11:54:04.175Z,58.3
2023-05-01T11:55:01.890Z,58.5
2023-05-01T11:56:01.068Z,58.5
2023-05-01T11:57:01.507Z,58.5
2023-05-01T11:58:01.919Z,58.6
2023-05-01T11:59:10.199Z,58.6
2023-05-01T12:00:01.156Z,58.6
2023-05-01T12:01:01.714Z,58.5
2023-05-01T12:02:01.114Z,58.6
2023-05-01T12:03:03.165Z,58.5
2023-05-01T12:04:01.250Z,58.6
2023-05-01T12:05:14.708Z,58.5
2023-05-01T12:06:01.103Z,58.6
2023-05-01T12:07:01.373Z,58.6
2023-05-01T12:08:10.156Z,58.8
2023-05-01T12:09:01.483Z,58.6
2023-05-01T12:10:01.724Z,58.8
2023-05-01T12:11:01.186Z,58.8
2023-05-01T12:12:01.647Z,59.0
2023-05-01T12:13:02.127Z,59.0
2023-05-01T12:14:01.879Z,59.0
2023-05-01T12:15:01.624Z,59.0
2023-05-01T12:16:01.749Z,59.2
2023-05-01T12:17:01.269Z,59.2
2023-05-01T12:18:01.811Z,59.2
2023-05-01T12:19:01.641Z,59.4
2023-05-01T12:20:01.691Z,59.5
2023-05-01T12:21:01.416Z,59.7
2023-05-01T12:22:05.618Z,60.1
2023-05-01T12:23:02.045Z,60.1
2023-05-01T12:24:07.622Z,60.4
2023-05-01T12:25:01.457Z,60.8
2023-05-01T12:26:01.432Z,60.8
2023-05-01T12:27:01.560Z,61.3
2023-05-01T12:28:06.605Z,61.2
2023-05-01T12:29:03.564Z,61.2
2023-05-01T12:30:01.044Z,61.2
2023-05-01T12:31:04.885Z,60.8
2023-05-01T12:32:01.982Z,60.8
2023-05-01T12:33:07.398Z,60.6
2023-05-01T12:34:02.578Z,60.4
2023-05-01T12:35:13.291Z,60.3
2023-05-01T12:36:09.423Z,59.9
2023-05-01T12:37:02.268Z,59.7
2023-05-01T12:38:10.109Z,59.7
2023-05-01T12:39:03.994Z,59.7
2023-05-01T12:40:01.124Z,59.4
2023-05-01T12:41:01.420Z,59.4
2023-05-01T12:42:01.163Z,59.4
2023-05-01T12:43:01.239Z,59.4
2023-05-01T12:44:01.615Z,59.4
2023-05-01T12:45:01.304Z,59.5
2023-05-01T12:46:03.130Z,59.7
2023-05-01T12:47:02.776Z,59.9
2023-05-01T12:48:01.571Z,59.5
2023-05-01T12:49:01.087Z,59.0
2023-05-01T12:50:01.940Z,58.6
2023-05-01T12:51:01.198Z,58.1
2023-05-01T12:52:02.271Z,58.1
2023-05-01T12:53:02.079Z,58.1
2023-05-01T12:54:01.127Z,58.1
2023-05-01T12:55:03.116Z,57.9
2023-05-01T12:56:01.260Z,58.1
2023-05-01T12:57:05.700Z,57.9
2023-05-01T12:58:01.146Z,57.9
2023-05-01T12:59:01.397Z,57.9
2023-05-01T13:00:03.522Z,57.9
2023-05-01T13:01:01.272Z,57.7
2023-05-01T13:02:02.996Z,57.9
2023-05-01T13:03:04.054Z,57.9
2023-05-01T13:04:01.111Z,57.9
2023-05-01T13:05:05.910Z,57.9
2023-05-01T13:06:03.066Z,57.9
2023-05-01T13:07:01.651Z,57.7
2023-05-01T13:08:03.019Z,57.7
2023-05-01T13:09:09.180Z,57.6
2023-05-01T13:10:02.639Z,57.4
2023-05-01T13:11:09.154Z,57.4
2023-05-01T13:12:02.646Z,57.0
2023-05-01T13:13:01.255Z,56.8
2023-05-01T13:14:07.724Z,56.8
2023-05-01T13:15:01.492Z,56.8
2023-05-01T13:16:06.247Z,56.7
2023-05-01T13:17:01.130Z,56.5
2023-05-01T13:18:04.251Z,56.5